createdAt,value
2018-04-27T00:00:00.834Z,3.70
2018-04-27T00:02:29.642Z,3.90
2018-04-27T00:04:57.668Z,3.83
2018-04-27T00:07:25.758Z,4.10
2018-04-27T00:09:53.790Z,3.90
2018-04-27T00:12:21.819Z,3.80
2018-04-27T00:14:49.865Z,4.17
2018-04-27T00:17:17.896Z,4.10
2018-04-27T00:19:45.954Z,3.93
2018-04-27T00:22:13.983Z,3.90
2018-04-27T00:24:42.804Z,3.93
2018-04-27T00:27:10.840Z,3.97
2018-04-27T00:29:38.881Z,4.47
2018-04-27T00:32:06.919Z,4.37
2018-04-27T00:34:34.969Z,4.40
2018-04-27T00:37:03.003Z,4.40
2018-04-27T00:39:31.828Z,4.43
2018-04-27T00:41:59.858Z,4.80
2018-04-27T00:44:27.904Z,4.97
2018-04-27T00:46:55.938Z,5.17
2018-04-27T00:49:23.971Z,4.50
2018-04-27T00:51:52.011Z,4.97
2018-04-27T00:54:20.053Z,3.90
2018-04-27T00:56:48.092Z,4.00
2018-04-27T00:59:16.904Z,4.53
2018-04-27T01:01:45.711Z,4.63
2018-04-27T01:04:13.763Z,4.50
2018-04-27T01:06:41.804Z,4.30
2018-04-27T01:09:09.840Z,4.70
2018-04-27T01:11:37.866Z,5.00
2018-04-27T01:14:05.911Z,4.23
2018-04-27T01:16:33.948Z,4.60
2018-04-27T01:19:02.000Z,4.90
2018-04-27T01:21:30.798Z,4.70
2018-04-27T01:23:58.851Z,4.30
2018-04-27T01:26:26.879Z,4.60
2018-04-27T01:28:54.915Z,4.83
2018-04-27T01:31:22.971Z,4.70
2018-04-27T01:33:51.598Z,5.10
2018-04-27T01:36:19.649Z,4.83
2018-04-27T01:38:47.688Z,4.53
2018-04-27T01:41:16.506Z,5.07
2018-04-27T01:43:44.542Z,4.60
2018-04-27T01:46:12.590Z,4.60
2018-04-27T01:48:40.658Z,4.60
2018-04-27T01:51:08.699Z,4.77
2018-04-27T01:53:36.759Z,4.80
2018-04-27T01:56:04.805Z,5.17
2018-04-27T01:58:32.843Z,5.23
2018-04-27T02:01:00.894Z,5.13
2018-04-27T02:03:28.939Z,5.27
2018-04-27T02:05:57.826Z,4.53
2018-04-27T02:08:25.792Z,5.03
2018-04-27T02:10:53.848Z,5.37
2018-04-27T02:13:21.879Z,5.10
2018-04-27T02:15:49.929Z,4.63
2018-04-27T02:18:17.959Z,4.73
2018-04-27T02:20:46.771Z,5.27
2018-04-27T02:23:15.579Z,4.83
2018-04-27T02:25:43.633Z,6.07
2018-04-27T02:28:11.663Z,5.60
2018-04-27T02:30:39.713Z,5.57
2018-04-27T02:33:08.517Z,5.30
2018-04-27T02:35:37.335Z,5.47
2018-04-27T02:38:05.354Z,5.30
2018-04-27T02:40:33.410Z,5.73
2018-04-27T02:43:01.439Z,5.77
2018-04-27T02:45:29.483Z,5.70
2018-04-27T02:47:57.519Z,4.90
2018-04-27T02:50:25.570Z,5.20
2018-04-27T02:52:53.605Z,5.37
2018-04-27T02:55:21.654Z,5.53
2018-04-27T02:57:49.695Z,5.90
2018-04-27T03:00:17.739Z,5.23
2018-04-27T03:02:45.786Z,5.57
2018-04-27T03:05:13.828Z,5.40
2018-04-27T03:07:42.638Z,4.77
2018-04-27T03:10:10.672Z,4.33
2018-04-27T03:12:38.707Z,5.60
2018-04-27T03:15:06.738Z,5.33
2018-04-27T03:17:34.785Z,4.50
2018-04-27T03:20:02.811Z,4.40
2018-04-27T03:22:30.862Z,5.27
2018-04-27T03:24:58.899Z,5.00
2018-04-27T03:27:27.710Z,4.23
2018-04-27T03:29:55.746Z,5.20
2018-04-27T03:32:23.802Z,5.23
2018-04-27T03:34:51.853Z,5.13
2018-04-27T03:37:19.894Z,4.87
2018-04-27T03:39:48.684Z,4.63
2018-04-27T03:42:16.731Z,4.73
2018-04-27T03:44:44.762Z,5.37
2018-04-27T03:47:12.794Z,5.13
2018-04-27T03:49:40.830Z,5.20
2018-04-27T03:52:08.874Z,5.13
2018-04-27T03:54:36.911Z,5.33
2018-04-27T03:57:04.959Z,5.30
2018-04-27T03:59:44.745Z,5.97
2018-04-27T04:02:24.718Z,5.47
2018-04-27T04:05:04.582Z,5.77
2018-04-27T04:07:32.623Z,5.33
2018-04-27T04:10:00.656Z,7.00
2018-04-27T04:12:28.687Z,5.93
2018-04-27T04:14:56.715Z,5.83
2018-04-27T04:17:24.756Z,5.60
2018-04-27T04:19:52.792Z,5.93
2018-04-27T04:22:20.833Z,6.03
2018-04-27T04:24:48.890Z,6.67
2018-04-27T04:27:16.934Z,5.60
2018-04-27T04:29:44.990Z,5.70
2018-04-27T04:32:13.026Z,5.37
2018-04-27T04:34:41.822Z,6.03
2018-04-27T04:37:10.642Z,5.93
2018-04-27T04:39:38.677Z,5.33
2018-04-27T04:42:06.715Z,4.90
2018-04-27T04:44:34.751Z,4.87
2018-04-27T04:47:02.791Z,5.00
2018-04-27T04:49:30.827Z,4.23
2018-04-27T04:51:58.875Z,4.97
2018-04-27T04:54:26.903Z,4.20
2018-04-27T04:56:55.717Z,4.00
2018-04-27T04:59:24.523Z,3.47
2018-04-27T05:01:53.330Z,4.13
2018-04-27T05:04:21.364Z,3.80
2018-04-27T05:06:49.407Z,3.80
2018-04-27T05:09:17.437Z,3.60
2018-04-27T05:11:45.480Z,3.53
2018-04-27T05:14:13.505Z,3.20
2018-04-27T05:16:41.573Z,3.40
2018-04-27T05:19:09.659Z,3.67
2018-04-27T05:21:37.757Z,3.70
2018-04-27T05:24:05.849Z,3.67
2018-04-27T05:26:33.961Z,3.70
2018-04-27T05:29:02.788Z,3.90
2018-04-27T05:31:30.864Z,4.00
2018-04-27T05:33:58.994Z,4.00
2018-04-27T05:36:27.089Z,3.60
2018-04-27T05:38:55.185Z,3.53
2018-04-27T05:41:24.051Z,3.57
2018-04-27T05:43:52.161Z,3.90
2018-04-27T05:46:20.263Z,3.50
2018-04-27T05:48:49.107Z,3.37
2018-04-27T05:51:17.215Z,3.40
2018-04-27T05:53:45.361Z,3.07
2018-04-27T05:56:13.461Z,3.23
2018-04-27T05:58:41.622Z,3.43
2018-04-27T06:01:09.700Z,3.40
2018-04-27T06:06:43.246Z,3.27
2018-04-27T06:09:11.289Z,3.33
2018-04-27T06:11:39.330Z,3.27
2018-04-27T06:14:07.374Z,3.50
2018-04-27T06:16:35.413Z,3.30
2018-04-27T06:19:03.452Z,3.60
2018-04-27T06:21:32.250Z,3.90
2018-04-27T06:24:01.061Z,3.60
2018-04-27T06:26:29.124Z,3.77
2018-04-27T06:28:57.162Z,3.70
2018-04-27T06:31:25.257Z,3.97
2018-04-27T06:33:53.308Z,3.67
2018-04-27T06:36:21.351Z,4.27
2018-04-27T06:38:49.398Z,3.90
2018-04-27T06:41:17.448Z,4.13
2018-04-27T06:43:46.305Z,4.80
2018-04-27T06:46:14.379Z,4.17
2018-04-27T06:48:42.498Z,5.40
2018-04-27T06:51:10.603Z,4.33
2018-04-27T06:53:39.476Z,3.93
2018-04-27T06:56:07.567Z,4.80
2018-04-27T06:58:35.683Z,4.60
2018-04-27T07:01:03.789Z,4.30
2018-04-27T07:03:31.855Z,3.60
2018-04-27T07:05:59.925Z,4.43
2018-04-27T07:08:28.776Z,3.77
2018-04-27T07:10:56.880Z,4.10
2018-04-27T07:13:24.964Z,3.63
2018-04-27T07:15:53.048Z,4.07
2018-04-27T07:18:21.140Z,4.10
2018-04-27T07:20:49.244Z,4.10
2018-04-27T07:23:17.333Z,4.10
2018-04-27T07:25:46.203Z,3.90
2018-04-27T07:28:14.298Z,3.63
2018-04-27T07:30:42.374Z,4.23
2018-04-27T07:33:10.468Z,4.10
2018-04-27T07:35:38.536Z,4.07
2018-04-27T07:38:06.644Z,4.20
2018-04-27T07:40:34.747Z,4.23
2018-04-27T07:43:03.598Z,3.70
2018-04-27T07:45:31.666Z,3.13
2018-04-27T07:47:59.731Z,3.10
2018-04-27T07:50:27.835Z,3.83
2018-04-27T07:52:55.921Z,3.57
2018-04-27T07:55:24.074Z,3.70
2018-04-27T07:57:52.082Z,3.10
2018-04-27T08:00:20.171Z,3.50
2018-04-27T08:02:48.279Z,3.27
2018-04-27T08:05:16.372Z,3.63
2018-04-27T08:07:44.464Z,2.97
2018-04-27T08:10:12.550Z,3.10
2018-04-27T08:12:40.639Z,2.73
2018-04-27T08:15:08.744Z,2.80
2018-04-27T08:17:36.892Z,2.87
2018-04-27T08:20:05.007Z,3.10
2018-04-27T08:22:34.902Z,2.57
2018-04-27T08:25:02.982Z,2.40
2018-04-27T08:27:31.083Z,2.93
2018-04-27T08:29:59.200Z,2.73
2018-04-27T08:32:28.042Z,3.03
2018-04-27T08:34:56.177Z,2.73
2018-04-27T08:37:25.024Z,2.57
2018-04-27T08:39:53.138Z,2.77
2018-04-27T08:42:21.294Z,2.33
2018-04-27T08:44:50.248Z,2.60
2018-04-27T08:47:18.333Z,2.77
2018-04-27T08:49:46.506Z,2.50
2018-04-27T08:52:14.591Z,2.60
2018-04-27T08:54:42.719Z,2.57
2018-04-27T08:57:10.786Z,2.27
2018-04-27T08:59:38.852Z,1.80
2018-04-27T09:02:06.947Z,2.30
2018-04-27T09:04:35.092Z,2.40
2018-04-27T09:07:03.188Z,2.40
2018-04-27T09:09:31.281Z,2.93
2018-04-27T09:11:59.356Z,2.70
2018-04-27T09:14:27.436Z,2.50
2018-04-27T09:16:55.531Z,2.20
2018-04-27T09:19:23.665Z,2.33
2018-04-27T09:21:53.292Z,2.30
2018-04-27T09:24:21.440Z,2.30
2018-04-27T09:26:49.615Z,2.60
2018-04-27T09:29:17.606Z,2.40
2018-04-27T09:31:45.702Z,2.20
2018-04-27T09:34:13.784Z,2.50
2018-04-27T09:36:41.908Z,2.47
2018-04-27T09:39:10.021Z,2.00
2018-04-27T09:41:38.095Z,3.10
2018-04-27T09:44:06.183Z,2.87
2018-04-27T09:46:34.335Z,2.10
2018-04-27T09:49:03.155Z,2.40
2018-04-27T09:51:31.283Z,2.03
2018-04-27T09:53:59.374Z,2.17
2018-04-27T09:56:27.461Z,2.93
2018-04-27T09:58:55.544Z,2.60
2018-04-27T10:01:24.621Z,2.63
2018-04-27T10:03:52.704Z,2.60
2018-04-27T10:06:20.777Z,2.40
2018-04-27T10:08:48.826Z,2.63
2018-04-27T10:11:16.951Z,2.10
2018-04-27T10:13:45.015Z,2.70
2018-04-27T10:16:13.103Z,2.20
2018-04-27T10:18:41.219Z,2.90
2018-04-27T10:21:09.284Z,2.20
2018-04-27T10:23:37.361Z,2.83
2018-04-27T10:26:05.455Z,2.37
2018-04-27T10:28:33.540Z,2.50
2018-04-27T10:31:01.721Z,2.72
2018-04-27T10:33:29.704Z,2.90
2018-04-27T10:35:57.774Z,2.67
2018-04-27T10:38:25.877Z,2.97
2018-04-27T10:40:53.939Z,2.90
2018-04-27T10:43:22.052Z,2.87
2018-04-27T10:45:50.136Z,2.73
2018-04-27T10:48:18.256Z,2.40
2018-04-27T10:50:47.675Z,3.27
2018-04-27T10:53:17.036Z,2.80
2018-04-27T10:55:46.352Z,2.80
2018-04-27T10:58:15.682Z,2.93
2018-04-27T11:00:45.036Z,3.20
2018-04-27T11:03:14.469Z,2.70
2018-04-27T11:05:42.364Z,3.67
2018-04-27T11:08:10.423Z,3.00
2018-04-27T11:10:39.279Z,3.10
2018-04-27T11:13:07.421Z,3.30
2018-04-27T11:15:35.487Z,3.30
2018-04-27T11:18:04.319Z,3.33
2018-04-27T11:20:32.431Z,3.40
2018-04-27T11:23:00.516Z,3.43
2018-04-27T11:25:28.591Z,2.77
2018-04-27T11:27:56.739Z,3.13
2018-04-27T11:30:25.583Z,3.33
2018-04-27T11:32:53.677Z,3.60
2018-04-27T11:35:21.789Z,3.50
2018-04-27T11:37:49.918Z,3.00
2018-04-27T11:40:18.760Z,3.33
2018-04-27T11:42:46.843Z,3.17
2018-04-27T11:45:14.902Z,3.13
2018-04-27T11:47:43.050Z,3.50
2018-04-27T11:50:11.132Z,3.87
2018-04-27T11:52:40.101Z,3.23
2018-04-27T11:55:08.102Z,3.47
2018-04-27T11:57:36.176Z,3.40
2018-04-27T12:00:04.273Z,2.93
2018-04-27T12:02:34.144Z,3.40
2018-04-27T12:05:02.267Z,3.93
2018-04-27T12:07:30.336Z,3.30
2018-04-27T12:09:58.487Z,2.93
2018-04-27T12:12:26.527Z,3.10
2018-04-27T12:14:54.676Z,3.60
2018-04-27T12:17:22.767Z,3.75
2018-04-27T12:19:50.836Z,3.33
2018-04-27T12:22:18.949Z,3.20
2018-04-27T12:24:47.012Z,3.58
2018-04-27T12:27:15.099Z,3.20
2018-04-27T12:29:43.217Z,3.58
2018-04-27T12:32:11.354Z,3.78
2018-04-27T12:34:39.448Z,3.30
2018-04-27T12:37:07.545Z,3.10
2018-04-27T12:39:35.628Z,3.20
2018-04-27T12:42:03.730Z,3.25
2018-04-27T12:44:31.821Z,3.22
2018-04-27T12:46:59.923Z,3.90
2018-04-27T12:49:28.000Z,3.53
2018-04-27T12:51:56.113Z,2.72
2018-04-27T12:54:24.957Z,3.22
2018-04-27T12:56:53.074Z,2.85
2018-04-27T12:59:21.160Z,3.20
2018-04-27T13:01:49.263Z,3.75
2018-04-27T13:04:18.136Z,3.53
2018-04-27T13:06:46.219Z,3.67
2018-04-27T13:09:14.310Z,3.55
2018-04-27T13:11:42.403Z,3.85
2018-04-27T13:14:10.504Z,2.97
2018-04-27T13:16:39.364Z,3.10
2018-04-27T13:19:07.519Z,3.28
2018-04-27T13:21:35.568Z,2.92
2018-04-27T13:24:03.694Z,3.53
2018-04-27T13:26:31.881Z,3.22
2018-04-27T13:28:59.892Z,3.60
2018-04-27T13:31:27.934Z,2.92
2018-04-27T13:33:56.078Z,3.53
2018-04-27T13:36:24.191Z,3.53
2018-04-27T13:38:53.065Z,3.47
2018-04-27T13:41:21.165Z,3.05
2018-04-27T13:43:50.071Z,3.50
2018-04-27T13:46:18.227Z,3.40
2018-04-27T13:48:47.687Z,5.55
2018-04-27T13:51:17.020Z,3.60
2018-04-27T13:53:46.369Z,3.45
2018-04-27T13:56:15.717Z,3.62
2018-04-27T13:58:45.074Z,2.55
2018-04-27T14:01:13.084Z,2.87
2018-04-27T14:03:41.168Z,3.12
2018-04-27T14:06:09.270Z,3.10
2018-04-27T14:08:37.373Z,3.00
2018-04-27T14:11:06.244Z,2.40
2018-04-27T14:13:34.398Z,2.97
2018-04-27T14:16:02.471Z,2.58
2018-04-27T14:18:30.548Z,3.03
2018-04-27T14:20:58.594Z,3.58
2018-04-27T14:23:26.704Z,3.67
2018-04-27T14:25:55.573Z,2.55
2018-04-27T14:28:23.691Z,2.87
2018-04-27T14:30:52.530Z,2.45
2018-04-27T14:33:20.638Z,2.50
2018-04-27T14:35:48.710Z,2.90
2018-04-27T14:38:16.789Z,2.30
2018-04-27T14:40:44.871Z,2.50
2018-04-27T14:43:12.942Z,2.53
2018-04-27T14:45:41.059Z,2.28
2018-04-27T14:48:09.150Z,2.42
2018-04-27T14:50:37.250Z,2.60
2018-04-27T14:53:05.367Z,2.40
2018-04-27T14:55:34.199Z,2.30
2018-04-27T14:58:02.339Z,2.50
2018-04-27T15:00:31.206Z,2.28
2018-04-27T15:02:59.288Z,4.20
2018-04-27T15:05:27.388Z,2.70
2018-04-27T15:07:55.505Z,4.00
2018-04-27T15:10:24.380Z,2.47
2018-04-27T15:12:52.474Z,2.47
2018-04-27T15:15:20.638Z,2.77
2018-04-27T15:17:48.744Z,2.20
2018-04-27T15:20:16.853Z,2.10
2018-04-27T15:22:45.723Z,2.93
2018-04-27T15:25:14.595Z,2.40
2018-04-27T15:27:42.673Z,2.80
2018-04-27T15:30:10.787Z,2.73
2018-04-27T15:32:38.844Z,2.77
2018-04-27T15:35:06.912Z,2.97
2018-04-27T15:37:35.039Z,2.97
2018-04-27T15:40:03.131Z,2.40
2018-04-27T15:42:31.249Z,2.73
2018-04-27T15:45:00.112Z,2.27
2018-04-27T15:47:28.199Z,2.50
2018-04-27T15:49:56.285Z,2.43
2018-04-27T15:52:25.155Z,3.23
2018-04-27T15:54:53.271Z,2.87
2018-04-27T15:57:21.394Z,2.50
2018-04-27T15:59:50.227Z,2.40
2018-04-27T16:02:18.653Z,2.30
2018-04-27T16:04:46.743Z,2.30
2018-04-27T16:07:14.816Z,2.47
2018-04-27T16:09:42.908Z,2.57
2018-04-27T16:12:11.025Z,2.33
2018-04-27T16:14:39.919Z,2.37
2018-04-27T16:17:08.755Z,2.20
2018-04-27T16:19:36.916Z,4.70
2018-04-27T16:22:04.990Z,3.90
2018-04-27T16:24:33.839Z,2.40
2018-04-27T16:27:01.949Z,2.37
2018-04-27T16:29:30.108Z,2.50
2018-04-27T16:31:58.176Z,2.60
2018-04-27T16:34:26.254Z,2.23
2018-04-27T16:36:54.371Z,2.30
2018-04-27T16:39:22.443Z,2.73
2018-04-27T16:41:50.536Z,3.00
2018-04-27T16:44:18.633Z,2.40
2018-04-27T16:46:46.732Z,2.70
2018-04-27T16:49:14.875Z,2.30
2018-04-27T16:51:42.951Z,2.50
2018-04-27T16:54:11.019Z,2.13
2018-04-27T16:56:39.111Z,2.40
2018-04-27T16:59:07.212Z,2.80
2018-04-27T17:01:35.310Z,2.57
2018-04-27T17:04:03.400Z,2.20
2018-04-27T17:06:31.495Z,2.37
2018-04-27T17:08:59.579Z,8.03
2018-04-27T17:11:27.735Z,2.10
2018-04-27T17:13:55.808Z,2.80
2018-04-27T17:16:23.939Z,2.77
2018-04-27T17:18:52.028Z,2.60
2018-04-27T17:21:20.136Z,2.13
2018-04-27T17:23:48.994Z,2.73
2018-04-27T17:26:17.108Z,2.00
2018-04-27T17:28:45.260Z,2.40
2018-04-27T17:31:13.333Z,2.60
2018-04-27T17:33:41.436Z,2.50
2018-04-27T17:36:09.554Z,3.27
2018-04-27T17:38:37.642Z,2.97
2018-04-27T17:41:05.725Z,3.33
2018-04-27T17:43:33.839Z,2.83
2018-04-27T17:46:02.678Z,2.50
2018-04-27T17:48:30.761Z,2.77
2018-04-27T17:50:58.858Z,3.20
2018-04-27T17:53:27.036Z,2.70
2018-04-27T17:55:55.088Z,2.50
2018-04-27T17:58:23.176Z,2.57
2018-04-27T18:00:51.387Z,2.83
2018-04-27T18:03:20.163Z,2.40
2018-04-27T18:05:48.307Z,1.80
2018-04-27T18:08:16.399Z,2.40
2018-04-27T18:10:44.488Z,2.63
2018-04-27T18:13:13.379Z,1.90
2018-04-27T18:15:41.465Z,2.40
2018-04-27T18:18:09.596Z,2.53
2018-04-27T18:20:38.453Z,2.73
2018-04-27T18:23:06.585Z,2.40
2018-04-27T18:25:34.700Z,3.30
2018-04-27T18:28:02.775Z,2.90
2018-04-27T18:30:30.883Z,3.30
2018-04-27T18:32:59.012Z,3.37
2018-04-27T18:35:27.099Z,3.00
2018-04-27T18:37:55.163Z,2.90
2018-04-27T18:40:24.060Z,2.70
2018-04-27T18:42:52.910Z,2.07
2018-04-27T18:45:21.032Z,3.30
2018-04-27T18:47:49.156Z,2.73
2018-04-27T18:50:17.985Z,2.50
2018-04-27T18:52:46.111Z,2.60
2018-04-27T18:55:14.193Z,2.70
2018-04-27T18:57:42.357Z,2.27
2018-04-27T19:00:11.154Z,2.90
2018-04-27T19:02:39.345Z,2.80
2018-04-27T19:05:09.292Z,3.50
2018-04-27T19:07:37.404Z,3.40
2018-04-27T19:10:06.254Z,4.60
2018-04-27T19:12:34.392Z,4.53
2018-04-27T19:15:03.244Z,4.67
2018-04-27T19:17:31.358Z,3.43
2018-04-27T19:19:59.451Z,3.67
2018-04-27T19:22:28.283Z,4.63
2018-04-27T19:24:57.315Z,4.20
2018-04-27T19:27:25.427Z,3.30
2018-04-27T19:29:53.532Z,3.30
2018-04-27T19:32:22.410Z,3.97
2018-04-27T19:34:50.487Z,3.80
2018-04-27T19:37:18.606Z,4.07
2018-04-27T19:39:47.464Z,4.27
2018-04-27T19:42:15.593Z,4.60
2018-04-27T19:44:45.465Z,5.37
2018-04-27T19:47:14.053Z,3.43
2018-04-27T19:49:42.796Z,3.10
2018-04-27T19:52:11.457Z,3.47
2018-04-27T19:54:39.946Z,3.87
2018-04-27T19:57:08.918Z,3.73
2018-04-27T19:59:36.971Z,3.30
2018-04-27T20:02:05.091Z,3.30
2018-04-27T20:04:33.960Z,3.10
2018-04-27T20:07:02.094Z,3.10
2018-04-27T20:09:30.926Z,3.27
2018-04-27T20:11:59.070Z,3.67
2018-04-27T20:14:31.731Z,3.60
2018-04-27T20:17:00.694Z,4.63
2018-04-27T20:19:29.524Z,4.10
2018-04-27T20:21:57.679Z,4.80
2018-04-27T20:24:25.692Z,3.80
2018-04-27T20:26:53.802Z,4.20
2018-04-27T20:29:21.889Z,3.73
2018-04-27T20:31:49.981Z,3.53
2018-04-27T20:34:18.871Z,3.67
2018-04-27T20:36:46.942Z,3.10
2018-04-27T20:39:15.032Z,2.77
2018-04-27T20:41:43.136Z,2.63
2018-04-27T20:44:12.001Z,2.63
2018-04-27T20:46:40.091Z,2.83
2018-04-27T20:49:08.177Z,2.03
2018-04-27T20:51:36.328Z,2.07
2018-04-27T20:54:05.669Z,2.20
2018-04-27T20:56:38.329Z,1.97
2018-04-27T20:59:06.455Z,2.67
2018-04-27T21:01:34.522Z,2.30
2018-04-27T21:04:02.636Z,1.93
2018-04-27T21:06:30.756Z,2.00
2018-04-27T21:08:58.832Z,1.83
2018-04-27T21:11:36.548Z,2.00
2018-04-27T21:14:05.454Z,2.03
2018-04-27T21:16:33.573Z,2.10
2018-04-27T21:19:01.683Z,2.10
2018-04-27T21:21:29.772Z,2.30
2018-04-27T21:23:57.871Z,2.00
2018-04-27T21:26:26.776Z,2.37
2018-04-27T21:28:56.445Z,2.13
2018-04-27T21:31:24.537Z,1.77
2018-04-27T21:33:53.583Z,2.20
2018-04-27T21:36:33.195Z,5.60
2018-04-27T21:39:02.145Z,3.43
2018-04-27T21:44:36.447Z,2.00
2018-04-27T21:47:08.026Z,2.57
2018-04-27T21:49:36.880Z,4.83
2018-04-27T21:52:11.623Z,7.83
2018-04-27T21:54:40.180Z,4.47
2018-04-27T21:57:09.019Z,3.80
2018-04-27T22:00:03.550Z,2.93
2018-04-27T22:02:32.538Z,2.97
2018-04-27T22:05:07.403Z,3.60
2018-04-27T22:07:36.235Z,3.17
2018-04-27T22:10:04.441Z,2.70
2018-04-27T22:12:35.946Z,2.40
2018-04-27T22:15:04.840Z,2.80
2018-04-27T22:17:32.926Z,2.70
2018-04-27T22:20:03.179Z,2.70
2018-04-27T22:22:31.333Z,2.60
2018-04-27T22:27:59.191Z,2.50
2018-04-27T22:33:35.073Z,2.50
2018-04-27T22:36:10.526Z,2.93
2018-04-27T22:38:40.053Z,2.60
2018-04-27T22:41:09.736Z,2.77
2018-04-27T22:43:39.287Z,2.70
2018-04-27T22:46:11.031Z,7.87
2018-04-27T22:48:39.910Z,4.07
2018-04-27T22:51:16.380Z,3.13
2018-04-27T22:53:48.408Z,2.90
2018-04-27T22:56:19.083Z,2.87
2018-04-27T22:58:47.164Z,2.87
2018-04-27T23:01:15.265Z,3.40
2018-04-27T23:03:44.074Z,3.00
2018-04-27T23:06:12.996Z,2.77
2018-04-27T23:08:50.708Z,2.80
2018-04-27T23:11:22.299Z,2.37
2018-04-27T23:16:54.389Z,2.80
2018-04-27T23:19:24.854Z,2.50
2018-04-27T23:22:01.450Z,3.00
2018-04-27T23:24:29.545Z,3.07
2018-04-27T23:26:59.219Z,2.93
2018-04-27T23:29:27.312Z,3.30
2018-04-27T23:31:55.405Z,4.13
2018-04-27T23:34:23.508Z,4.33
2018-04-27T23:36:52.341Z,3.17
2018-04-27T23:39:20.493Z,3.67
2018-04-27T23:41:48.598Z,3.40
2018-04-27T23:44:17.444Z,3.20
2018-04-27T23:46:45.564Z,3.87
2018-04-27T23:49:13.728Z,3.97
2018-04-27T23:51:41.810Z,3.80
2018-04-27T23:54:09.958Z,3.57
2018-04-27T23:56:38.851Z,3.87
2018-04-27T23:59:07.720Z,3.57
